Time;durP1;ratioP1;P1;durP2;ratioP2;P2;SDS_P1;SDS_P2;PMS_P1;PMS_P2;Temp;Humidity;BMP_temperature;BMP_pressure;BME280_temperature;BME280_humidity;BME280_pressure;Samples;Min_cycle;Max_cycle;Signal;HPM_P1;HPM_P2
2023/03/19 00:01:10;;;;;;;19.77;17.03;;;10.50;99.90;;;;;;5051251;28;20123;-50
2023/03/19 00:03:35;;;;;;;23.42;19.33;;;10.40;99.90;;;;;;5049932;28;20041;-50
2023/03/19 00:06:01;;;;;;;22.53;20.17;;;10.40;99.90;;;;;;5051095;28;20079;-50
2023/03/19 00:08:27;;;;;;;22.60;20.05;;;10.40;99.90;;;;;;5050309;28;20319;-50
2023/03/19 00:10:53;;;;;;;21.60;19.27;;;10.40;99.90;;;;;;5051423;28;20521;-49
2023/03/19 00:13:18;;;;;;;24.75;21.00;;;10.40;99.90;;;;;;5051383;28;20035;-49
2023/03/19 00:15:46;;;;;;;21.73;19.17;;;10.40;99.90;;;;;;5050951;28;20098;-51
2023/03/19 00:18:12;;;;;;;23.98;20.25;;;10.40;99.90;;;;;;5050701;28;20727;-50
2023/03/19 00:20:37;;;;;;;22.10;19.65;;;10.30;99.90;;;;;;5051228;28;20068;-49
2023/03/19 00:23:03;;;;;;;23.42;19.30;;;10.30;99.90;;;;;;5050876;28;20094;-50
2023/03/19 00:25:29;;;;;;;23.73;21.02;;;10.30;99.90;;;;;;5051376;28;20087;-53
2023/03/19 00:27:55;;;;;;;23.20;20.80;;;10.30;99.90;;;;;;5050186;28;20045;-49
2023/03/19 00:30:21;;;;;;;34.22;20.58;;;10.30;99.90;;;;;;5060954;28;20037;-49
2023/03/19 00:32:47;;;;;;;;;;;10.30;99.90;;;;;;5050730;28;20045;-52
2023/03/19 00:35:13;;;;;;;23.63;21.15;;;10.30;99.90;;;;;;5050547;28;19928;-52
2023/03/19 00:37:39;;;;;;;25.63;21.83;;;10.30;99.90;;;;;;5050144;28;20036;-49
2023/03/19 00:40:06;;;;;;;25.38;19.35;;;10.30;99.90;;;;;;5050395;28;20493;-49
2023/03/19 00:42:32;;;;;;;22.77;20.27;;;10.30;99.90;;;;;;5050499;28;20512;-49
2023/03/19 00:44:58;;;;;;;21.15;18.80;;;10.30;99.90;;;;;;5050560;28;20036;-50
2023/03/19 00:47:24;;;;;;;21.95;19.20;;;10.30;99.90;;;;;;5050552;28;20041;-52
2023/03/19 00:49:50;;;;;;;21.02;18.67;;;10.30;99.90;;;;;;5050159;28;20052;-49
2023/03/19 00:52:15;;;;;;;21.55;19.08;;;10.30;99.90;;;;;;5049444;28;20045;-49
2023/03/19 00:54:41;;;;;;;21.13;18.07;;;10.30;99.90;;;;;;5050378;28;20406;-49
2023/03/19 00:57:07;;;;;;;20.13;17.70;;;10.40;99.90;;;;;;5050041;28;20279;-53
2023/03/19 00:59:33;;;;;;;21.27;18.98;;;10.40;99.90;;;;;;5033300;28;20049;-49
2023/03/19 01:01:58;;;;;;;22.98;19.48;;;10.40;99.90;;;;;;5029883;28;20033;-49
2023/03/19 01:04:24;;;;;;;24.30;17.25;;;10.40;99.90;;;;;;5030097;28;20099;-49
2023/03/19 01:06:50;;;;;;;21.52;19.30;;;10.30;99.90;;;;;;5030716;28;20041;-49
2023/03/19 01:09:16;;;;;;;22.52;18.27;;;10.30;99.90;;;;;;5029403;28;20037;-49
2023/03/19 01:11:42;;;;;;;20.83;18.63;;;10.40;99.90;;;;;;5030285;28;20107;-49
2023/03/19 01:14:08;;;;;;;29.27;20.60;;;10.40;99.90;;;;;;5029746;28;20514;-50
2023/03/19 01:16:33;;;;;;;20.73;18.50;;;10.40;99.90;;;;;;5030062;28;20037;-50
2023/03/19 01:19:00;;;;;;;18.60;16.63;;;10.30;99.90;;;;;;5042345;28;20036;-49
2023/03/19 01:21:29;;;;;;;;;;;10.30;99.90;;;;;;5034277;28;20041;-49
2023/03/19 01:23:55;;;;;;;19.55;15.40;;;10.40;99.90;;;;;;5034057;28;19924;-49
2023/03/19 01:26:21;;;;;;;20.55;15.15;;;10.50;99.90;;;;;;5039865;28;20060;-49
2023/03/19 01:28:47;;;;;;;14.05;12.65;;;10.50;99.90;;;;;;5028441;28;20502;-50
2023/03/19 01:31:13;;;;;;;13.35;11.43;;;10.60;99.90;;;;;;5029049;28;20471;-51
2023/03/19 01:33:38;;;;;;;11.13;8.57;;;10.70;99.90;;;;;;5030116;28;20048;-51
2023/03/19 01:36:04;;;;;;;9.20;7.93;;;10.80;99.90;;;;;;5030006;28;20025;-49
2023/03/19 01:38:31;;;;;;;9.27;8.27;;;10.90;99.90;;;;;;5029018;28;20830;-49
2023/03/19 01:40:56;;;;;;;;;;;11.00;99.90;;;;;;5030102;28;20091;-49
2023/03/19 01:43:27;;;;;;;10.90;8.48;;;11.10;99.90;;;;;;5046737;28;19920;-49
2023/03/19 01:46:02;;;;;;;8.60;7.80;;;11.20;99.90;;;;;;5049358;28;20047;-53
2023/03/19 01:48:39;;;;;;;8.85;7.38;;;11.20;99.90;;;;;;5049392;28;20049;-49
2023/03/19 01:51:09;;;;;;;8.73;7.82;;;11.20;99.90;;;;;;5049734;28;20094;-49
2023/03/19 01:53:36;;;;;;;10.20;8.23;;;11.30;99.90;;;;;;5050030;28;20045;-49
2023/03/19 01:56:11;;;;;;;9.40;7.28;;;11.30;99.90;;;;;;5049939;28;20080;-49
2023/03/19 01:58:41;;;;;;;9.48;7.63;;;11.30;99.90;;;;;;5048653;28;20421;-49
2023/03/19 02:01:06;;;;;;;10.10;6.47;;;11.30;99.90;;;;;;5049698;28;20044;-50
2023/03/19 02:03:33;;;;;;;9.95;7.47;;;11.30;99.90;;;;;;5049644;28;20368;-49
2023/03/19 02:05:59;;;;;;;9.30;6.80;;;11.20;99.90;;;;;;5049620;28;20112;-49
2023/03/19 02:08:27;;;;;;;7.90;6.80;;;11.20;99.90;;;;;;5048446;28;20464;-49
2023/03/19 02:10:54;;;;;;;10.30;6.90;;;11.20;99.90;;;;;;5049190;28;20037;-51
2023/03/19 02:13:21;;;;;;;9.65;6.82;;;11.20;99.90;;;;;;5049578;28;20081;-50
2023/03/19 02:15:48;;;;;;;7.55;6.13;;;11.20;99.90;;;;;;5049433;28;20045;-50
2023/03/19 02:18:14;;;;;;;8.02;5.45;;;11.10;99.90;;;;;;5045494;28;20037;-50
2023/03/19 02:20:40;;;;;;;6.72;6.13;;;11.10;99.90;;;;;;5029077;28;20048;-51
2023/03/19 02:23:43;;;;;;;7.57;6.10;;;11.10;99.90;;;;;;5029380;28;20156;-49
2023/03/19 02:26:11;;;;;;;7.28;6.57;;;11.00;99.90;;;;;;5041939;28;20084;-49
2023/03/19 02:28:43;;;;;;;6.75;6.10;;;11.00;99.90;;;;;;5028962;28;21169;-49
2023/03/19 02:31:09;;;;;;;8.25;6.15;;;11.00;99.90;;;;;;5040995;28;20405;-50
2023/03/19 02:33:35;;;;;;;9.35;6.22;;;10.90;99.90;;;;;;5028276;28;20063;-50
2023/03/19 02:36:02;;;;;;;9.52;6.00;;;10.90;99.90;;;;;;5029074;28;20049;-50
2023/03/19 02:38:31;;;;;;;6.80;5.20;;;10.90;99.90;;;;;;5028403;28;20045;-49
2023/03/19 02:41:05;;;;;;;7.57;6.32;;;10.80;99.90;;;;;;5032757;28;20503;-52
2023/03/19 02:43:37;;;;;;;6.88;4.90;;;10.80;99.90;;;;;;5033043;28;20037;-49
2023/03/19 02:46:05;;;;;;;6.13;5.53;;;10.80;99.90;;;;;;5033090;28;20041;-49
2023/03/19 02:48:31;;;;;;;6.22;4.68;;;10.70;99.90;;;;;;5043026;28;20040;-50
2023/03/19 02:50:58;;;;;;;5.25;4.25;;;10.80;99.90;;;;;;5052927;28;20651;-51
2023/03/19 02:53:24;;;;;;;6.60;4.10;;;10.70;99.90;;;;;;5052896;28;20040;-50
2023/03/19 02:55:50;;;;;;;;;;;10.70;99.90;;;;;;5053294;28;20445;-49
2023/03/19 02:58:15;;;;;;;4.85;4.10;;;10.70;99.90;;;;;;5051862;28;19921;-50
2023/03/19 03:00:41;;;;;;;4.10;3.65;;;10.70;99.90;;;;;;5052165;28;20052;-50
2023/03/19 03:03:07;;;;;;;4.85;4.25;;;10.70;99.90;;;;;;5051002;28;20121;-49
2023/03/19 03:05:34;;;;;;;5.25;3.55;;;10.60;99.90;;;;;;5052637;28;20394;-51
2023/03/19 03:08:01;;;;;;;3.97;3.28;;;10.60;99.90;;;;;;5051662;28;20041;-49
2023/03/19 03:10:27;;;;;;;3.38;3.08;;;10.60;99.90;;;;;;5052788;28;20045;-49
2023/03/19 03:12:53;;;;;;;3.78;3.05;;;10.60;99.90;;;;;;5052163;28;20052;-49
2023/03/19 03:15:19;;;;;;;2.72;2.53;;;10.60;99.90;;;;;;5052307;28;20045;-49
2023/03/19 03:17:45;;;;;;;6.23;3.77;;;10.60;99.90;;;;;;5051630;28;20032;-49
2023/03/19 03:20:13;;;;;;;5.38;2.70;;;10.60;99.90;;;;;;5052587;28;20513;-50
2023/03/19 03:22:39;;;;;;;4.22;2.63;;;10.60;99.90;;;;;;5052382;28;20482;-50
2023/03/19 03:25:06;;;;;;;2.78;2.17;;;10.50;99.90;;;;;;5040706;28;20123;-49
2023/03/19 03:27:31;;;;;;;3.05;2.40;;;10.50;99.90;;;;;;5032030;28;20120;-49
2023/03/19 03:29:57;;;;;;;5.80;2.17;;;10.50;99.90;;;;;;5031046;28;20124;-49
2023/03/19 03:32:23;;;;;;;3.05;1.63;;;10.50;99.90;;;;;;5031629;28;20055;-49
2023/03/19 03:34:49;;;;;;;3.00;2.33;;;10.50;99.90;;;;;;5032269;28;20077;-49
2023/03/19 03:37:16;;;;;;;2.67;2.25;;;10.50;99.90;;;;;;5031987;28;20121;-49
2023/03/19 03:39:42;;;;;;;2.63;2.42;;;10.60;99.90;;;;;;5031303;28;20371;-49
2023/03/19 03:42:07;;;;;;;4.05;2.50;;;10.60;99.90;;;;;;5030741;28;20050;-50
2023/03/19 03:44:33;;;;;;;3.43;2.03;;;10.50;99.90;;;;;;5036606;28;20086;-51
2023/03/19 03:46:58;;;;;;;4.07;2.20;;;10.50;99.90;;;;;;5049693;28;20291;-52
2023/03/19 03:49:24;;;;;;;1.80;1.60;;;10.50;99.90;;;;;;5031392;28;20129;-49
2023/03/19 03:51:50;;;;;;;4.22;2.13;;;10.50;99.90;;;;;;5031201;28;20375;-50
2023/03/19 03:54:16;;;;;;;2.35;1.55;;;10.50;99.90;;;;;;5048898;28;20578;-51
2023/03/19 03:56:42;;;;;;;2.47;1.70;;;10.40;99.90;;;;;;5041203;28;20384;-49
2023/03/19 03:59:08;;;;;;;4.25;2.15;;;10.50;99.90;;;;;;5048221;28;20346;-50
2023/03/19 04:01:34;;;;;;;1.80;1.70;;;10.40;99.90;;;;;;5047513;28;20059;-49
2023/03/19 04:03:59;;;;;;;2.22;2.03;;;10.40;99.90;;;;;;5031637;28;20049;-50
2023/03/19 04:06:26;;;;;;;1.80;1.70;;;10.40;99.90;;;;;;5031602;28;20049;-51
2023/03/19 04:08:52;;;;;;;3.15;1.92;;;10.40;99.90;;;;;;5030771;28;20045;-50
2023/03/19 04:11:18;;;;;;;3.77;2.67;;;10.40;99.90;;;;;;5031045;28;20079;-50
2023/03/19 04:13:43;;;;;;;2.78;2.58;;;10.50;99.90;;;;;;5034877;28;20387;-50
2023/03/19 04:16:10;;;;;;;3.07;2.87;;;10.40;99.90;;;;;;5051278;28;20044;-49
2023/03/19 04:18:36;;;;;;;3.55;2.95;;;10.50;99.90;;;;;;5050567;28;20032;-49
2023/03/19 04:21:02;;;;;;;;;;;10.50;99.90;;;;;;5063983;28;20393;-51
2023/03/19 04:23:28;;;;;;;5.47;2.80;;;10.50;99.90;;;;;;5071338;28;19916;-49
2023/03/19 04:26:01;;;;;;;4.28;3.10;;;10.50;99.90;;;;;;5071025;28;20047;-50
2023/03/19 04:28:28;;;;;;;4.90;3.42;;;10.50;99.90;;;;;;5069839;28;20426;-50
2023/03/19 04:31:04;;;;;;;3.40;3.13;;;10.50;99.90;;;;;;5070923;28;20374;-52
2023/03/19 04:33:30;;;;;;;3.17;2.85;;;10.50;99.90;;;;;;5071350;28;20063;-50
2023/03/19 04:35:56;;;;;;;;;;;10.50;99.90;;;;;;5071466;28;20086;-51
2023/03/19 04:38:22;;;;;;;4.43;3.65;;;10.50;99.90;;;;;;5069617;28;19916;-49
2023/03/19 04:40:48;;;;;;;;;;;10.50;99.90;;;;;;5070630;28;20047;-52
2023/03/19 04:43:14;;;;;;;3.63;3.22;;;10.40;99.90;;;;;;5069884;28;20804;-49
2023/03/19 04:45:40;;;;;;;4.22;3.47;;;10.40;99.90;;;;;;5071184;28;20037;-53
2023/03/19 04:48:06;;;;;;;3.47;3.20;;;10.40;99.90;;;;;;5070168;28;20520;-49
2023/03/19 04:50:31;;;;;;;4.60;3.78;;;10.40;99.90;;;;;;5064695;28;20048;-49
2023/03/19 04:52:57;;;;;;;3.97;3.38;;;10.40;99.90;;;;;;5050002;28;20051;-49
2023/03/19 04:55:23;;;;;;;3.83;3.43;;;10.40;99.90;;;;;;5050301;28;20052;-50
2023/03/19 04:57:48;;;;;;;3.67;3.37;;;10.40;99.90;;;;;;5047901;28;20037;-49
2023/03/19 05:00:15;;;;;;;4.40;3.92;;;10.40;99.90;;;;;;5042849;28;20366;-49
2023/03/19 05:02:41;;;;;;;5.25;3.42;;;10.40;99.90;;;;;;5031326;28;20499;-49
2023/03/19 05:05:08;;;;;;;3.65;3.35;;;10.30;99.90;;;;;;5030560;28;20584;-51
2023/03/19 05:07:34;;;;;;;4.60;3.03;;;10.30;99.90;;;;;;5029904;28;20044;-50
2023/03/19 05:10:00;;;;;;;4.23;3.53;;;10.30;99.90;;;;;;5029981;28;20045;-51
2023/03/19 05:12:25;;;;;;;3.85;3.47;;;10.30;99.90;;;;;;5029871;28;20041;-50
2023/03/19 05:14:51;;;;;;;3.75;3.35;;;10.30;99.90;;;;;;5030613;28;20033;-49
2023/03/19 05:17:17;;;;;;;5.68;3.67;;;10.30;99.90;;;;;;5034292;28;20037;-49
2023/03/19 05:19:43;;;;;;;4.20;3.90;;;10.30;99.90;;;;;;5049105;28;20037;-50
2023/03/19 05:22:09;;;;;;;3.60;3.30;;;10.30;99.90;;;;;;5049792;28;20298;-49
2023/03/19 05:24:35;;;;;;;6.63;4.18;;;10.30;99.90;;;;;;5048292;28;20563;-50
2023/03/19 05:27:01;;;;;;;5.55;3.25;;;10.30;99.90;;;;;;5050320;28;20052;-49
2023/03/19 05:29:27;;;;;;;4.65;4.03;;;10.30;99.90;;;;;;5047434;28;20495;-49
2023/03/19 05:31:52;;;;;;;5.05;3.70;;;10.30;99.90;;;;;;5049775;28;20045;-50
2023/03/19 05:34:18;;;;;;;4.53;4.15;;;10.30;99.90;;;;;;5048327;28;20477;-49
2023/03/19 05:36:44;;;;;;;5.85;4.30;;;10.30;99.90;;;;;;5050312;28;20029;-49
2023/03/19 05:39:09;;;;;;;5.05;4.47;;;10.30;99.90;;;;;;5048144;28;20043;-51
2023/03/19 05:41:35;;;;;;;4.67;3.73;;;10.30;99.90;;;;;;5049391;28;20120;-49
2023/03/19 05:44:00;;;;;;;6.18;3.92;;;10.20;99.90;;;;;;5049704;28;20037;-49
2023/03/19 05:46:26;;;;;;;4.07;3.77;;;10.20;99.90;;;;;;5049662;28;20426;-50
2023/03/19 05:48:52;;;;;;;3.92;3.53;;;10.20;99.90;;;;;;5048754;28;20280;-49
2023/03/19 05:51:18;;;;;;;6.80;4.33;;;10.20;99.90;;;;;;5049544;28;20040;-49
2023/03/19 05:53:43;;;;;;;4.00;3.53;;;10.20;99.90;;;;;;5045652;28;20276;-49
2023/03/19 05:56:09;;;;;;;4.07;3.77;;;10.20;99.90;;;;;;5030246;28;20043;-49
2023/03/19 05:58:35;;;;;;;6.15;4.00;;;10.20;99.90;;;;;;5029064;28;20049;-49
2023/03/19 06:01:01;;;;;;;4.83;4.37;;;10.20;99.90;;;;;;5029586;28;20038;-52
2023/03/19 06:03:27;;;;;;;4.90;4.25;;;10.20;99.90;;;;;;5033851;28;20092;-51
2023/03/19 06:05:52;;;;;;;6.50;4.70;;;10.20;99.90;;;;;;5045055;28;20071;-49
2023/03/19 06:08:18;;;;;;;6.33;5.73;;;10.20;99.90;;;;;;5031797;28;20354;-49
2023/03/19 06:10:44;;;;;;;12.68;5.65;;;10.20;99.90;;;;;;5030461;28;20617;-52
2023/03/19 06:13:10;;;;;;;5.47;4.97;;;10.30;99.90;;;;;;5044119;28;20112;-49
2023/03/19 06:15:36;;;;;;;7.20;6.15;;;10.20;99.90;;;;;;5046383;28;20152;-49
2023/03/19 06:18:02;;;;;;;5.40;4.90;;;10.30;99.90;;;;;;5040290;28;20494;-50
2023/03/19 06:20:28;;;;;;;7.78;5.53;;;10.20;99.90;;;;;;5053377;28;20095;-50
2023/03/19 06:22:53;;;;;;;7.32;5.88;;;10.30;99.90;;;;;;5043829;28;20040;-50
2023/03/19 06:25:19;;;;;;;7.40;6.20;;;10.30;99.90;;;;;;5033494;28;20132;-49
2023/03/19 06:27:45;;;;;;;9.45;6.45;;;10.30;99.90;;;;;;5033076;28;20045;-49
2023/03/19 06:30:12;;;;;;;7.63;6.85;;;10.30;99.90;;;;;;5033384;28;20044;-49
2023/03/19 06:32:37;;;;;;;8.50;7.15;;;10.30;99.90;;;;;;5033072;28;20088;-49
2023/03/19 06:35:03;;;;;;;9.05;7.07;;;10.30;99.90;;;;;;5041802;28;20068;-49
2023/03/19 06:37:29;;;;;;;10.07;6.65;;;10.40;99.90;;;;;;5051842;28;20033;-49
2023/03/19 06:39:55;;;;;;;10.10;7.53;;;10.40;99.90;;;;;;5053459;28;20047;-50
2023/03/19 06:42:21;;;;;;;8.00;7.10;;;10.40;99.90;;;;;;5051388;28;20480;-49
2023/03/19 06:44:47;;;;;;;;;;;10.40;99.90;;;;;;5053595;28;20076;-53
2023/03/19 06:47:13;;;;;;;7.55;6.80;;;10.40;99.90;;;;;;5052637;28;19963;-51
2023/03/19 06:49:39;;;;;;;8.85;6.85;;;10.40;99.90;;;;;;5052434;28;20554;-49
2023/03/19 06:52:05;;;;;;;7.32;6.63;;;10.40;99.90;;;;;;5045010;28;20036;-50
2023/03/19 06:54:30;;;;;;;8.90;7.90;;;10.50;99.90;;;;;;5042714;28;20056;-51
2023/03/19 06:56:56;;;;;;;8.80;7.90;;;10.50;99.90;;;;;;5037911;28;20034;-49
2023/03/19 06:59:22;;;;;;;10.85;7.15;;;10.50;99.90;;;;;;5041907;28;20418;-52
2023/03/19 07:01:47;;;;;;;7.95;6.78;;;10.60;99.90;;;;;;5032565;28;20045;-50
2023/03/19 07:04:13;;;;;;;9.70;7.93;;;10.60;99.90;;;;;;5035462;28;20112;-49
2023/03/19 07:06:39;;;;;;;8.52;7.40;;;10.60;99.90;;;;;;5052116;28;20047;-50
2023/03/19 07:09:05;;;;;;;7.97;6.90;;;10.60;99.90;;;;;;5049895;28;20071;-49
2023/03/19 07:11:31;;;;;;;11.18;8.15;;;10.70;99.90;;;;;;5032471;28;20124;-52
2023/03/19 07:13:56;;;;;;;11.15;7.63;;;10.70;99.90;;;;;;5033642;28;20037;-49
2023/03/19 07:16:22;;;;;;;12.60;8.13;;;10.70;99.90;;;;;;5051190;28;20401;-50
2023/03/19 07:18:47;;;;;;;9.00;8.10;;;10.70;99.90;;;;;;5059248;28;20288;-50
2023/03/19 07:21:13;;;;;;;8.97;8.13;;;10.70;99.90;;;;;;5048803;28;20449;-53
2023/03/19 07:23:39;;;;;;;11.37;9.03;;;10.70;99.90;;;;;;5051325;28;20029;-50
2023/03/19 07:26:04;;;;;;;9.35;8.45;;;10.70;99.90;;;;;;5035342;28;20042;-49
2023/03/19 07:28:30;;;;;;;9.40;8.50;;;10.70;99.90;;;;;;5031759;28;20038;-50
2023/03/19 07:30:56;;;;;;;10.25;9.13;;;10.70;99.90;;;;;;5039948;28;20369;-49
2023/03/19 07:33:21;;;;;;;10.53;8.77;;;10.70;99.90;;;;;;5039407;28;20503;-53
2023/03/19 07:35:47;;;;;;;12.07;10.88;;;10.70;99.90;;;;;;5031782;28;20480;-52
2023/03/19 07:38:13;;;;;;;11.90;10.25;;;10.80;99.90;;;;;;5030822;28;20041;-50
2023/03/19 07:40:39;;;;;;;12.70;11.40;;;10.80;99.90;;;;;;5032248;28;20045;-49
2023/03/19 07:43:05;;;;;;;12.40;10.80;;;10.80;99.90;;;;;;5031992;28;20042;-49
2023/03/19 07:45:31;;;;;;;13.02;11.55;;;10.80;99.90;;;;;;5031922;28;20041;-49
2023/03/19 07:47:57;;;;;;;14.50;12.32;;;10.80;99.90;;;;;;5031039;28;20080;-50
2023/03/19 07:50:22;;;;;;;14.52;12.73;;;10.90;99.90;;;;;;5049101;28;20047;-52
2023/03/19 07:52:50;;;;;;;13.30;11.70;;;10.90;99.90;;;;;;5051259;28;20045;-51
2023/03/19 07:55:16;;;;;;;16.10;12.82;;;10.90;99.90;;;;;;5051881;28;20045;-49
2023/03/19 07:57:42;;;;;;;17.88;14.50;;;11.00;99.90;;;;;;5051103;28;20114;-49
2023/03/19 08:00:09;;;;;;;18.25;13.10;;;11.00;99.90;;;;;;5051805;28;20041;-49
2023/03/19 08:02:35;;;;;;;16.77;14.05;;;11.00;99.90;;;;;;5051187;28;20033;-49
2023/03/19 08:05:03;;;;;;;15.80;14.00;;;11.10;99.90;;;;;;5051036;28;20174;-49
2023/03/19 08:07:32;;;;;;;14.98;13.20;;;11.10;99.90;;;;;;5040492;28;20029;-50
2023/03/19 08:09:58;;;;;;;15.93;13.48;;;11.10;99.90;;;;;;5039495;28;20039;-50
2023/03/19 08:12:24;;;;;;;16.95;13.70;;;11.10;99.90;;;;;;5041300;28;20052;-50
2023/03/19 08:14:50;;;;;;;15.85;13.48;;;11.10;99.90;;;;;;5040757;28;20115;-49
2023/03/19 08:17:16;;;;;;;14.13;12.73;;;11.10;99.90;;;;;;5040835;28;20459;-49
2023/03/19 08:19:42;;;;;;;16.83;11.85;;;11.20;99.90;;;;;;5039485;28;20039;-49
2023/03/19 08:22:08;;;;;;;16.17;14.48;;;11.20;99.90;;;;;;5031081;28;20044;-49
2023/03/19 08:24:33;;;;;;;15.68;13.00;;;11.20;99.90;;;;;;5039784;28;20044;-49
2023/03/19 08:26:59;;;;;;;13.87;12.33;;;11.20;99.90;;;;;;5051073;28;20037;-50
2023/03/19 08:29:26;;;;;;;14.55;12.88;;;11.20;99.90;;;;;;5050414;28;20119;-50
2023/03/19 08:31:52;;;;;;;16.65;13.60;;;11.20;99.90;;;;;;5050629;28;20414;-50
2023/03/19 08:34:18;;;;;;;;;;;11.30;99.90;;;;;;5050894;28;20044;-49
2023/03/19 08:36:43;;;;;;;14.02;12.60;;;11.30;99.90;;;;;;5042242;28;19917;-51
2023/03/19 08:39:09;;;;;;;14.40;12.90;;;11.30;99.90;;;;;;5037116;28;20061;-49
2023/03/19 08:41:35;;;;;;;17.20;13.67;;;11.40;99.90;;;;;;5050674;28;20310;-49
2023/03/19 08:44:00;;;;;;;18.30;13.30;;;11.40;99.90;;;;;;5043831;28;20033;-49
2023/03/19 08:46:26;;;;;;;13.57;12.18;;;11.50;99.90;;;;;;5030975;28;20510;-49
2023/03/19 08:48:52;;;;;;;16.60;11.90;;;11.50;99.90;;;;;;5029362;28;20030;-50
2023/03/19 08:51:18;;;;;;;15.90;13.27;;;11.50;99.90;;;;;;5030717;28;20044;-53
2023/03/19 08:53:44;;;;;;;15.13;13.18;;;11.60;99.90;;;;;;5034921;28;20074;-52
2023/03/19 08:56:09;;;;;;;14.68;12.85;;;11.60;99.90;;;;;;5050625;28;20231;-49
2023/03/19 08:58:35;;;;;;;13.77;12.40;;;11.60;99.90;;;;;;5048047;28;20036;-50
2023/03/19 09:01:03;;;;;;;14.05;11.85;;;11.60;99.90;;;;;;5050211;28;20040;-49
2023/03/19 09:03:29;;;;;;;15.57;13.30;;;11.60;99.90;;;;;;5039099;28;20108;-50
2023/03/19 09:06:01;;;;;;;;;;;11.60;99.90;;;;;;5031177;28;20076;-50
2023/03/19 09:08:29;;;;;;;15.40;12.80;;;11.60;99.90;;;;;;5029596;28;19920;-51
2023/03/19 09:10:55;;;;;;;13.88;12.38;;;11.60;99.90;;;;;;5047919;28;20041;-51
2023/03/19 09:13:22;;;;;;;13.50;12.07;;;11.60;99.90;;;;;;5032313;28;20124;-50
2023/03/19 09:15:48;;;;;;;18.45;12.98;;;11.60;99.90;;;;;;5047933;28;20379;-51
2023/03/19 09:18:14;;;;;;;;;;;11.60;99.90;;;;;;5039496;28;20033;-51
2023/03/19 09:20:40;;;;;;;16.40;11.35;;;11.60;99.90;;;;;;5033304;28;19921;-50
2023/03/19 09:23:06;;;;;;;;;;;11.60;99.90;;;;;;5034058;28;20108;-50
2023/03/19 09:25:32;;;;;;;12.82;11.38;;;11.60;99.90;;;;;;5033938;28;20071;-51
2023/03/19 09:27:57;;;;;;;13.23;11.35;;;11.60;99.90;;;;;;5029144;28;20406;-51
2023/03/19 09:30:23;;;;;;;14.87;12.10;;;11.50;99.90;;;;;;5030480;28;20124;-51
2023/03/19 09:32:49;;;;;;;12.30;11.10;;;11.60;99.90;;;;;;5029612;28;20049;-50
2023/03/19 09:35:14;;;;;;;12.27;10.07;;;11.60;99.90;;;;;;5038721;28;20056;-50
2023/03/19 09:37:40;;;;;;;13.25;11.73;;;11.70;99.90;;;;;;5048763;28;20037;-50
2023/03/19 09:40:07;;;;;;;12.38;11.18;;;11.70;99.90;;;;;;5042088;28;20033;-50
2023/03/19 09:43:03;;;;;;;12.57;11.27;;;11.80;99.90;;;;;;5029729;28;20040;-51
2023/03/19 09:45:29;;;;;;;12.70;11.27;;;11.90;99.90;;;;;;5039692;28;20049;-50
2023/03/19 09:48:03;;;;;;;12.90;10.27;;;11.90;99.90;;;;;;5048475;28;20648;-50
2023/03/19 09:50:33;;;;;;;17.50;11.65;;;11.90;99.90;;;;;;5039298;28;20041;-51
2023/03/19 09:53:21;;;;;;;12.38;10.68;;;12.00;99.90;;;;;;5029586;28;20116;-49
2023/03/19 09:55:51;;;;;;;17.20;10.63;;;11.90;99.90;;;;;;5040765;28;20051;-53
2023/03/19 09:58:18;;;;;;;10.00;8.98;;;11.90;99.90;;;;;;5048606;28;20033;-50
2023/03/19 10:00:50;;;;;;;11.82;10.60;;;12.00;99.90;;;;;;5047431;28;20446;-51
2023/03/19 10:03:58;;;;;;;17.73;10.27;;;12.10;99.90;;;;;;5049369;28;20052;-51
2023/03/19 10:06:32;;;;;;;12.52;9.50;;;12.20;99.90;;;;;;5033622;28;20045;-50
2023/03/19 10:09:02;;;;;;;13.23;10.63;;;12.20;99.90;;;;;;5028879;28;20088;-51
2023/03/19 10:11:33;;;;;;;10.35;8.77;;;12.30;99.90;;;;;;5044782;28;20047;-50
2023/03/19 10:14:08;;;;;;;9.40;8.50;;;12.40;99.90;;;;;;5049487;28;20037;-50
2023/03/19 10:16:36;;;;;;;10.57;8.90;;;12.40;99.90;;;;;;5032910;28;20120;-50
2023/03/19 10:19:05;;;;;;;9.73;8.73;;;12.40;99.90;;;;;;5028924;28;20112;-49
2023/03/19 10:21:41;;;;;;;11.82;9.45;;;12.40;99.90;;;;;;5030792;28;20120;-53
2023/03/19 10:24:36;;;;;;;11.97;10.70;;;12.50;99.90;;;;;;5029405;28;20265;-53
2023/03/19 10:27:15;;;;;;;12.10;9.10;;;12.50;99.90;;;;;;5047347;28;20800;-50
2023/03/19 10:29:42;;;;;;;9.25;8.27;;;12.50;99.90;;;;;;5048973;28;20072;-53
2023/03/19 10:32:46;;;;;;;;;;;12.50;99.90;;;;;;5047908;28;20438;-53
2023/03/19 10:35:20;;;;;;;10.20;8.63;;;12.50;99.90;;;;;;5025286;28;19936;-50
2023/03/19 10:37:48;;;;;;;11.98;9.48;;;12.50;99.90;;;;;;5025133;28;20134;-50
2023/03/19 10:40:24;;;;;;;12.77;9.93;;;12.50;99.90;;;;;;5036617;28;20064;-50
2023/03/19 10:43:03;;;;;;;13.93;11.07;;;12.60;99.90;;;;;;5028794;28;20079;-50
2023/03/19 10:45:35;;;;;;;12.27;10.55;;;12.60;99.90;;;;;;5031358;28;20045;-50
2023/03/19 10:48:03;;;;;;;12.93;10.32;;;12.60;99.90;;;;;;5048233;28;20041;-50
2023/03/19 10:50:35;;;;;;;13.93;11.18;;;12.70;99.90;;;;;;5047148;28;20049;-54
2023/03/19 10:53:11;;;;;;;16.02;12.18;;;12.80;99.90;;;;;;5032623;28;20052;-50
2023/03/19 10:55:37;;;;;;;14.45;10.73;;;12.80;99.90;;;;;;5045419;28;20045;-50
2023/03/19 10:58:28;;;;;;;15.18;11.90;;;13.00;99.90;;;;;;5027953;28;20171;-50
2023/03/19 11:01:03;;;;;;;16.30;11.43;;;13.20;99.90;;;;;;5022698;28;20514;-50
2023/03/19 11:03:46;;;;;;;12.05;10.85;;;13.40;99.90;;;;;;5031808;28;20041;-50
2023/03/19 11:06:35;;;;;;;12.85;11.55;;;13.50;99.90;;;;;;5049228;28;20379;-50
2023/03/19 11:09:11;;;;;;;14.80;11.65;;;13.60;99.90;;;;;;5051639;28;20088;-50
2023/03/19 11:12:05;;;;;;;13.50;11.38;;;13.60;99.90;;;;;;5052421;28;20055;-50
2023/03/19 11:14:56;;;;;;;12.25;10.43;;;13.60;99.90;;;;;;5052338;28;20041;-52
2023/03/19 11:17:24;;;;;;;14.68;11.77;;;13.60;99.90;;;;;;5038338;28;20096;-53
2023/03/19 11:19:53;;;;;;;14.10;12.32;;;13.60;99.90;;;;;;5039691;28;20033;-50
2023/03/19 11:22:26;;;;;;;12.68;11.32;;;13.70;99.90;;;;;;5032273;28;20045;-50
2023/03/19 11:24:55;;;;;;;14.63;11.60;;;13.70;99.90;;;;;;5032313;28;20495;-50
2023/03/19 11:27:33;;;;;;;13.40;12.00;;;13.80;99.90;;;;;;5045088;28;20066;-50
2023/03/19 11:30:00;;;;;;;14.50;12.15;;;13.80;99.90;;;;;;5041581;28;20034;-51
2023/03/19 11:33:01;;;;;;;13.05;11.15;;;13.90;99.90;;;;;;5031932;28;20451;-50
2023/03/19 11:35:37;;;;;;;16.58;12.75;;;13.90;99.90;;;;;;5031387;28;20045;-51
2023/03/19 11:38:03;;;;;;;14.43;12.13;;;14.00;99.90;;;;;;5031661;28;20084;-51
2023/03/19 11:41:16;;;;;;;13.30;10.88;;;14.00;99.90;;;;;;5045265;28;20045;-51
2023/03/19 11:44:09;;;;;;;14.93;11.50;;;14.10;99.90;;;;;;5007838;28;20080;-51
2023/03/19 11:46:41;;;;;;;12.48;10.68;;;14.10;99.90;;;;;;5027743;28;20084;-50
2023/03/19 11:49:26;;;;;;;13.63;10.52;;;14.20;99.90;;;;;;5031904;28;20133;-51
2023/03/19 11:52:17;;;;;;;13.23;10.73;;;14.30;99.90;;;;;;5051344;28;20740;-51
2023/03/19 11:55:12;;;;;;;11.50;9.90;;;14.40;99.90;;;;;;5046742;28;20123;-50
2023/03/19 11:58:02;;;;;;;12.48;10.30;;;14.50;99.90;;;;;;5030857;28;20398;-51
2023/03/19 12:00:54;;;;;;;11.68;10.38;;;14.60;99.90;;;;;;5041484;28;20033;-51
2023/03/19 12:03:50;;;;;;;14.73;12.27;;;14.80;99.90;;;;;;5045755;28;20045;-51
2023/03/19 12:06:34;;;;;;;16.42;12.35;;;14.90;99.90;;;;;;5047517;28;20056;-54
2023/03/19 12:09:06;;;;;;;14.27;11.30;;;15.00;99.90;;;;;;5050316;28;20436;-50
2023/03/19 12:11:32;;;;;;;12.63;11.27;;;15.00;99.90;;;;;;5033124;28;20134;-53
2023/03/19 12:14:24;;;;;;;15.97;11.67;;;15.00;99.90;;;;;;5032116;28;20503;-50
2023/03/19 12:17:17;;;;;;;13.57;11.55;;;15.20;99.90;;;;;;5051313;28;20395;-51
2023/03/19 12:20:20;;;;;;;13.82;11.68;;;15.20;99.90;;;;;;5048400;28;20111;-52
2023/03/19 12:23:17;;;;;;;15.70;11.48;;;15.30;99.90;;;;;;5031210;28;20108;-51
2023/03/19 12:26:07;;;;;;;13.90;10.88;;;15.30;99.90;;;;;;5041891;28;20060;-52
2023/03/19 12:28:50;;;;;;;12.70;10.93;;;15.30;99.90;;;;;;5048532;28;20041;-50
2023/03/19 12:31:18;;;;;;;17.38;12.43;;;15.40;99.90;;;;;;5036957;28;20565;-51
2023/03/19 12:33:54;;;;;;;14.38;11.00;;;15.40;99.90;;;;;;5030581;28;20045;-51
2023/03/19 12:36:28;;;;;;;14.35;11.68;;;15.50;99.90;;;;;;5032147;28;20053;-50
2023/03/19 12:39:01;;;;;;;12.10;10.73;;;15.60;99.90;;;;;;5030435;28;20037;-50
2023/03/19 12:41:28;;;;;;;24.88;12.07;;;15.70;99.90;;;;;;5044093;28;20560;-52
2023/03/19 12:44:20;;;;;;;20.38;11.38;;;15.80;99.90;;;;;;5050812;28;20517;-51
2023/03/19 12:47:06;;;;;;;13.15;11.63;;;15.80;99.90;;;;;;5034515;28;20037;-53
2023/03/19 12:50:09;;;;;;;12.70;11.10;;;15.90;99.90;;;;;;5030475;28;20087;-51
2023/03/19 12:52:43;;;;;;;14.80;11.43;;;15.90;99.90;;;;;;4987967;28;20050;-54